sensor_id;sensor_type;location;lat;lon;timestamp;pressure;altitude;pressure_sealevel;temperature;humidity
19590;BME280;12231;42.782;23.388;2022-07-21T00:00:24;95811.09;;;19.71;67.16
19590;BME280;12231;42.782;23.388;2022-07-21T00:02:51;95810.13;;;19.72;67.44
19590;BME280;12231;42.782;23.388;2022-07-21T00:05:17;95804.59;;;19.75;67.33
19590;BME280;12231;42.782;23.388;2022-07-21T00:07:43;95804.44;;;19.86;67.13
19590;BME280;12231;42.782;23.388;2022-07-21T00:10:09;95808.09;;;19.66;65.48
19590;BME280;12231;42.782;23.388;2022-07-21T00:12:35;95815.53;;;19.03;66.51
19590;BME280;12231;42.782;23.388;2022-07-21T00:15:02;95810.31;;;19.13;68.24
19590;BME280;12231;42.782;23.388;2022-07-21T00:17:27;95811.44;;;19.30;67.88
19590;BME280;12231;42.782;23.388;2022-07-21T00:19:53;95818.03;;;19.43;67.63
19590;BME280;12231;42.782;23.388;2022-07-21T00:22:18;95817.03;;;19.54;67.44
19590;BME280;12231;42.782;23.388;2022-07-21T00:24:44;95814.13;;;19.66;67.01
19590;BME280;12231;42.782;23.388;2022-07-21T00:27:09;95816.84;;;19.74;66.01
19590;BME280;12231;42.782;23.388;2022-07-21T00:29:35;95814.25;;;19.84;66.08
19590;BME280;12231;42.782;23.388;2022-07-21T00:32:00;95813.13;;;19.86;65.22
19590;BME280;12231;42.782;23.388;2022-07-21T00:34:26;95817.63;;;19.94;65.40
19590;BME280;12231;42.782;23.388;2022-07-21T00:36:51;95816.28;;;19.90;64.30
19590;BME280;12231;42.782;23.388;2022-07-21T00:39:17;95808.47;;;19.80;63.02
19590;BME280;12231;42.782;23.388;2022-07-21T00:41:42;95810.66;;;19.85;64.61
19590;BME280;12231;42.782;23.388;2022-07-21T00:44:22;95808.72;;;19.87;64.96
19590;BME280;12231;42.782;23.388;2022-07-21T00:46:47;95806.50;;;19.92;64.57
19590;BME280;12231;42.782;23.388;2022-07-21T00:49:13;95804.34;;;19.68;64.24
19590;BME280;12231;42.782;23.388;2022-07-21T00:51:38;95813.22;;;19.48;64.78
19590;BME280;12231;42.782;23.388;2022-07-21T00:54:04;95811.84;;;19.16;66.04
19590;BME280;12231;42.782;23.388;2022-07-21T00:56:29;95809.88;;;18.79;67.12
19590;BME280;12231;42.782;23.388;2022-07-21T00:58:55;95809.38;;;18.46;69.48
19590;BME280;12231;42.782;23.388;2022-07-21T01:01:21;95812.13;;;18.44;69.41
19590;BME280;12231;42.782;23.388;2022-07-21T01:03:46;95810.84;;;18.29;70.52
19590;BME280;12231;42.782;23.388;2022-07-21T01:06:12;95807.03;;;18.03;70.76
19590;BME280;12231;42.782;23.388;2022-07-21T01:08:38;95812.84;;;17.86;70.49
19590;BME280;12231;42.782;23.388;2022-07-21T01:11:03;95811.03;;;17.56;71.47
19590;BME280;12231;42.782;23.388;2022-07-21T01:13:30;95807.72;;;17.75;71.26
19590;BME280;12231;42.782;23.388;2022-07-21T01:15:55;95801.94;;;17.71;71.19
19590;BME280;12231;42.782;23.388;2022-07-21T01:18:21;95813.03;;;17.94;72.52
19590;BME280;12231;42.782;23.388;2022-07-21T01:20:52;95809.97;;;18.19;70.68
19590;BME280;12231;42.782;23.388;2022-07-21T01:23:19;95804.44;;;17.83;68.24
19590;BME280;12231;42.782;23.388;2022-07-21T01:25:50;95800.75;;;17.55;68.86
19590;BME280;12231;42.782;23.388;2022-07-21T01:28:16;95802.50;;;17.34;69.48
19590;BME280;12231;42.782;23.388;2022-07-21T01:30:42;95814.69;;;17.13;73.97
19590;BME280;12231;42.782;23.388;2022-07-21T01:33:07;95804.41;;;17.73;73.82
19590;BME280;12231;42.782;23.388;2022-07-21T01:35:33;95802.00;;;18.21;72.45
19590;BME280;12231;42.782;23.388;2022-07-21T01:37:59;95804.66;;;18.79;69.89
19590;BME280;12231;42.782;23.388;2022-07-21T01:40:25;95805.38;;;19.29;67.77
19590;BME280;12231;42.782;23.388;2022-07-21T01:43:09;95793.47;;;19.73;65.79
19590;BME280;12231;42.782;23.388;2022-07-21T01:45:35;95792.09;;;20.15;64.07
19590;BME280;12231;42.782;23.388;2022-07-21T01:48:00;95790.94;;;20.54;62.35
19590;BME280;12231;42.782;23.388;2022-07-21T01:50:27;95797.03;;;20.72;61.63
19590;BME280;12231;42.782;23.388;2022-07-21T01:52:57;95789.56;;;20.95;61.20
19590;BME280;12231;42.782;23.388;2022-07-21T01:55:23;95789.88;;;21.09;60.11
19590;BME280;12231;42.782;23.388;2022-07-21T01:57:49;95794.25;;;21.18;60.05
19590;BME280;12231;42.782;23.388;2022-07-21T02:00:15;95787.94;;;21.11;59.11
19590;BME280;12231;42.782;23.388;2022-07-21T02:02:40;95786.69;;;21.15;59.80
19590;BME280;12231;42.782;23.388;2022-07-21T02:05:06;95788.84;;;21.20;58.78
19590;BME280;12231;42.782;23.388;2022-07-21T02:07:32;95776.78;;;21.27;58.91
19590;BME280;12231;42.782;23.388;2022-07-21T02:09:57;95785.25;;;21.38;58.59
19590;BME280;12231;42.782;23.388;2022-07-21T02:12:22;95774.28;;;21.43;57.88
19590;BME280;12231;42.782;23.388;2022-07-21T02:14:49;95781.38;;;21.50;57.64
19590;BME280;12231;42.782;23.388;2022-07-21T02:17:14;95785.03;;;21.57;57.42
19590;BME280;12231;42.782;23.388;2022-07-21T02:19:40;95782.09;;;21.60;57.60
19590;BME280;12231;42.782;23.388;2022-07-21T02:22:05;95776.56;;;21.63;57.33
19590;BME280;12231;42.782;23.388;2022-07-21T02:24:31;95778.34;;;21.63;57.61
19590;BME280;12231;42.782;23.388;2022-07-21T02:26:56;95774.25;;;21.60;57.47
19590;BME280;12231;42.782;23.388;2022-07-21T02:29:22;95780.63;;;21.58;57.82
19590;BME280;12231;42.782;23.388;2022-07-21T02:31:47;95778.06;;;21.48;57.71
19590;BME280;12231;42.782;23.388;2022-07-21T02:34:13;95781.53;;;21.49;58.41
19590;BME280;12231;42.782;23.388;2022-07-21T02:36:38;95781.31;;;21.42;58.06
19590;BME280;12231;42.782;23.388;2022-07-21T02:39:04;95776.75;;;21.44;58.59
19590;BME280;12231;42.782;23.388;2022-07-21T02:41:30;95779.69;;;21.41;57.95
19590;BME280;12231;42.782;23.388;2022-07-21T02:43:56;95782.00;;;21.44;58.60
19590;BME280;12231;42.782;23.388;2022-07-21T02:46:21;95783.63;;;21.45;58.32
19590;BME280;12231;42.782;23.388;2022-07-21T02:48:47;95783.94;;;21.42;58.02
19590;BME280;12231;42.782;23.388;2022-07-21T02:51:12;95781.47;;;21.41;58.13
19590;BME280;12231;42.782;23.388;2022-07-21T02:53:38;95780.94;;;21.37;58.11
19590;BME280;12231;42.782;23.388;2022-07-21T02:56:03;95784.09;;;21.41;57.63
19590;BME280;12231;42.782;23.388;2022-07-21T02:58:29;95780.94;;;21.37;57.97
19590;BME280;12231;42.782;23.388;2022-07-21T03:01:00;95779.63;;;21.33;58.11
19590;BME280;12231;42.782;23.388;2022-07-21T03:03:27;95787.50;;;21.33;57.89
19590;BME280;12231;42.782;23.388;2022-07-21T03:05:53;95784.25;;;21.39;57.91
19590;BME280;12231;42.782;23.388;2022-07-21T03:08:19;95790.81;;;21.43;57.87
19590;BME280;12231;42.782;23.388;2022-07-21T03:10:45;95793.31;;;21.45;57.26
19590;BME280;12231;42.782;23.388;2022-07-21T03:13:11;95788.06;;;21.45;57.40
19590;BME280;12231;42.782;23.388;2022-07-21T03:15:37;95788.50;;;21.40;56.88
19590;BME280;12231;42.782;23.388;2022-07-21T03:18:03;95789.25;;;21.50;56.86
19590;BME280;12231;42.782;23.388;2022-07-21T03:20:30;95793.81;;;21.48;56.63
19590;BME280;12231;42.782;23.388;2022-07-21T03:22:57;95784.69;;;21.52;56.70
19590;BME280;12231;42.782;23.388;2022-07-21T03:25:23;95795.78;;;21.46;56.45
19590;BME280;12231;42.782;23.388;2022-07-21T03:27:49;95795.78;;;21.46;56.51
19590;BME280;12231;42.782;23.388;2022-07-21T03:30:15;95790.03;;;21.43;56.84
19590;BME280;12231;42.782;23.388;2022-07-21T03:32:41;95792.59;;;21.35;56.79
19590;BME280;12231;42.782;23.388;2022-07-21T03:35:08;95789.81;;;21.36;57.02
19590;BME280;12231;42.782;23.388;2022-07-21T03:37:46;95799.91;;;21.49;56.85
19590;BME280;12231;42.782;23.388;2022-07-21T03:40:14;95801.63;;;21.58;56.66
19590;BME280;12231;42.782;23.388;2022-07-21T03:42:40;95791.38;;;21.72;56.32
19590;BME280;12231;42.782;23.388;2022-07-21T03:45:06;95787.75;;;21.91;55.67
19590;BME280;12231;42.782;23.388;2022-07-21T03:47:32;95789.81;;;22.05;55.35
19590;BME280;12231;42.782;23.388;2022-07-21T03:49:57;95790.88;;;22.28;54.38
19590;BME280;12231;42.782;23.388;2022-07-21T03:52:23;95798.06;;;22.52;53.95
19590;BME280;12231;42.782;23.388;2022-07-21T03:54:48;95794.84;;;22.74;52.94
19590;BME280;12231;42.782;23.388;2022-07-21T03:57:14;95802.16;;;23.04;52.83
19590;BME280;12231;42.782;23.388;2022-07-21T03:59:39;95800.25;;;23.30;51.61
19590;BME280;12231;42.782;23.388;2022-07-21T04:02:04;95803.06;;;23.53;50.69
19590;BME280;12231;42.782;23.388;2022-07-21T04:04:30;95804.81;;;23.76;50.85
19590;BME280;12231;42.782;23.388;2022-07-21T04:06:55;95801.53;;;23.66;49.80
19590;BME280;12231;42.782;23.388;2022-07-21T04:09:21;95801.84;;;23.79;49.65
19590;BME280;12231;42.782;23.388;2022-07-21T04:11:46;95803.47;;;24.12;49.67
19590;BME280;12231;42.782;23.388;2022-07-21T04:14:12;95796.84;;;24.71;48.38
19590;BME280;12231;42.782;23.388;2022-07-21T04:16:37;95799.44;;;25.10;47.46
19590;BME280;12231;42.782;23.388;2022-07-21T04:19:02;95796.53;;;25.50;46.13
19590;BME280;12231;42.782;23.388;2022-07-21T04:21:28;95800.34;;;25.85;45.69
19590;BME280;12231;42.782;23.388;2022-07-21T04:23:53;95802.03;;;25.63;46.99
19590;BME280;12231;42.782;23.388;2022-07-21T04:26:19;95814.47;;;25.09;48.14
19590;BME280;12231;42.782;23.388;2022-07-21T04:28:44;95809.31;;;25.16;48.76
19590;BME280;12231;42.782;23.388;2022-07-21T04:31:09;95806.44;;;25.25;48.18
19590;BME280;12231;42.782;23.388;2022-07-21T04:33:35;95810.16;;;25.31;48.69
19590;BME280;12231;42.782;23.388;2022-07-21T04:36:01;95798.53;;;25.85;47.41
19590;BME280;12231;42.782;23.388;2022-07-21T04:38:26;95802.69;;;26.17;46.35
19590;BME280;12231;42.782;23.388;2022-07-21T04:40:51;95805.97;;;26.33;46.09
19590;BME280;12231;42.782;23.388;2022-07-21T04:43:17;95803.13;;;26.93;45.14
19590;BME280;12231;42.782;23.388;2022-07-21T04:45:42;95813.16;;;26.98;44.56
19590;BME280;12231;42.782;23.388;2022-07-21T04:48:08;95807.56;;;27.07;44.54
19590;BME280;12231;42.782;23.388;2022-07-21T04:50:33;95803.84;;;27.65;43.63
19590;BME280;12231;42.782;23.388;2022-07-21T04:52:59;95801.66;;;28.17;42.40
19590;BME280;12231;42.782;23.388;2022-07-21T04:55:24;95798.53;;;28.75;41.19
19590;BME280;12231;42.782;23.388;2022-07-21T04:57:51;95802.91;;;28.21;41.70
19590;BME280;12231;42.782;23.388;2022-07-21T05:00:19;95798.88;;;28.66;40.90
19590;BME280;12231;42.782;23.388;2022-07-21T05:02:46;95802.88;;;28.89;40.69
19590;BME280;12231;42.782;23.388;2022-07-21T05:05:12;95798.84;;;29.06;40.52
19590;BME280;12231;42.782;23.388;2022-07-21T05:07:38;95805.16;;;29.72;39.34
19590;BME280;12231;42.782;23.388;2022-07-21T05:10:09;95807.41;;;29.69;39.27
19590;BME280;12231;42.782;23.388;2022-07-21T05:12:35;95801.25;;;30.14;39.14
19590;BME280;12231;42.782;23.388;2022-07-21T05:15:01;95810.47;;;30.37;39.12
19590;BME280;12231;42.782;23.388;2022-07-21T05:17:27;95802.44;;;30.57;38.40
19590;BME280;12231;42.782;23.388;2022-07-21T05:19:53;95806.03;;;31.26;36.58
19590;BME280;12231;42.782;23.388;2022-07-21T05:22:18;95809.53;;;31.33;36.64
19590;BME280;12231;42.782;23.388;2022-07-21T05:24:44;95814.75;;;32.08;34.91
19590;BME280;12231;42.782;23.388;2022-07-21T05:27:09;95813.97;;;32.26;34.67
19590;BME280;12231;42.782;23.388;2022-07-21T05:29:34;95804.94;;;32.70;34.11
19590;BME280;12231;42.782;23.388;2022-07-21T05:32:00;95816.13;;;32.78;34.06
19590;BME280;12231;42.782;23.388;2022-07-21T05:34:25;95800.78;;;32.92;33.65
19590;BME280;12231;42.782;23.388;2022-07-21T05:36:51;95810.63;;;33.57;32.11
19590;BME280;12231;42.782;23.388;2022-07-21T05:39:18;95798.63;;;34.01;32.06
19590;BME280;12231;42.782;23.388;2022-07-21T05:41:43;95797.97;;;34.17;31.22
19590;BME280;12231;42.782;23.388;2022-07-21T05:44:09;95800.41;;;34.30;31.09
19590;BME280;12231;42.782;23.388;2022-07-21T05:46:34;95799.50;;;34.59;30.76
19590;BME280;12231;42.782;23.388;2022-07-21T05:49:00;95799.56;;;34.76;30.40
19590;BME280;12231;42.782;23.388;2022-07-21T05:51:25;95795.78;;;35.11;30.92
19590;BME280;12231;42.782;23.388;2022-07-21T05:53:51;95799.81;;;35.98;29.40
19590;BME280;12231;42.782;23.388;2022-07-21T05:56:17;95802.47;;;35.65;28.92
19590;BME280;12231;42.782;23.388;2022-07-21T05:58:42;95796.63;;;35.00;30.41
19590;BME280;12231;42.782;23.388;2022-07-21T06:01:08;95798.94;;;35.93;28.70
19590;BME280;12231;42.782;23.388;2022-07-21T06:03:41;95795.97;;;36.11;28.79
19590;BME280;12231;42.782;23.388;2022-07-21T06:06:08;95795.19;;;36.10;28.39
19590;BME280;12231;42.782;23.388;2022-07-21T06:08:37;95792.47;;;36.43;27.84
19590;BME280;12231;42.782;23.388;2022-07-21T06:11:03;95785.16;;;36.93;27.11
19590;BME280;12231;42.782;23.388;2022-07-21T06:13:29;95789.88;;;37.30;27.00
19590;BME280;12231;42.782;23.388;2022-07-21T06:15:54;95787.59;;;37.22;27.24
19590;BME280;12231;42.782;23.388;2022-07-21T06:18:19;95786.31;;;38.04;25.90
19590;BME280;12231;42.782;23.388;2022-07-21T06:20:45;95784.44;;;38.41;26.27
19590;BME280;12231;42.782;23.388;2022-07-21T06:23:10;95778.03;;;38.52;25.67
19590;BME280;12231;42.782;23.388;2022-07-21T06:25:36;95775.50;;;37.99;27.03
19590;BME280;12231;42.782;23.388;2022-07-21T06:28:01;95768.13;;;36.50;29.10
19590;BME280;12231;42.782;23.388;2022-07-21T06:30:27;95774.41;;;38.00;26.83
19590;BME280;12231;42.782;23.388;2022-07-21T06:32:52;95770.50;;;37.28;28.13
19590;BME280;12231;42.782;23.388;2022-07-21T06:35:19;95771.94;;;38.67;26.19
19590;BME280;12231;42.782;23.388;2022-07-21T06:37:46;95769.19;;;39.13;24.94
19590;BME280;12231;42.782;23.388;2022-07-21T06:40:12;95766.94;;;37.49;26.12
19590;BME280;12231;42.782;23.388;2022-07-21T06:42:38;95772.66;;;38.52;25.69
19590;BME280;12231;42.782;23.388;2022-07-21T06:45:03;95771.69;;;36.93;26.58
19590;BME280;12231;42.782;23.388;2022-07-21T06:47:29;95771.41;;;37.96;25.08
19590;BME280;12231;42.782;23.388;2022-07-21T06:49:55;95768.44;;;38.66;23.95
19590;BME280;12231;42.782;23.388;2022-07-21T06:52:20;95761.25;;;39.63;23.75
19590;BME280;12231;42.782;23.388;2022-07-21T06:54:46;95765.34;;;40.31;23.14
19590;BME280;12231;42.782;23.388;2022-07-21T06:57:11;95767.66;;;40.83;22.39
19590;BME280;12231;42.782;23.388;2022-07-21T06:59:38;95760.06;;;41.54;22.50
19590;BME280;12231;42.782;23.388;2022-07-21T07:02:04;95752.16;;;41.57;22.70
19590;BME280;12231;42.782;23.388;2022-07-21T07:04:29;95749.69;;;42.33;22.19
19590;BME280;12231;42.782;23.388;2022-07-21T07:06:55;95755.06;;;43.14;21.03
19590;BME280;12231;42.782;23.388;2022-07-21T07:09:21;95744.75;;;43.11;20.73
19590;BME280;12231;42.782;23.388;2022-07-21T07:11:48;95749.06;;;43.35;20.98
19590;BME280;12231;42.782;23.388;2022-07-21T07:14:13;95752.72;;;43.26;21.30
19590;BME280;12231;42.782;23.388;2022-07-21T07:16:39;95751.84;;;44.37;20.47
19590;BME280;12231;42.782;23.388;2022-07-21T07:19:05;95747.44;;;43.34;20.26
19590;BME280;12231;42.782;23.388;2022-07-21T07:21:30;95739.00;;;43.92;20.52
19590;BME280;12231;42.782;23.388;2022-07-21T07:23:56;95747.31;;;44.46;19.91
19590;BME280;12231;42.782;23.388;2022-07-21T07:26:21;95739.31;;;44.82;19.11
19590;BME280;12231;42.782;23.388;2022-07-21T07:28:47;95749.38;;;38.83;24.55
19590;BME280;12231;42.782;23.388;2022-07-21T07:31:12;95737.41;;;41.35;22.24
19590;BME280;12231;42.782;23.388;2022-07-21T07:33:38;95735.72;;;42.97;20.76
19590;BME280;12231;42.782;23.388;2022-07-21T07:36:03;95729.31;;;41.25;22.01
19590;BME280;12231;42.782;23.388;2022-07-21T07:38:29;95737.75;;;37.94;25.51
19590;BME280;12231;42.782;23.388;2022-07-21T07:40:54;95732.34;;;37.94;26.50
19590;BME280;12231;42.782;23.388;2022-07-21T07:43:19;95725.63;;;41.01;23.53
19590;BME280;12231;42.782;23.388;2022-07-21T07:45:45;95719.69;;;41.52;22.19
19590;BME280;12231;42.782;23.388;2022-07-21T07:48:10;95715.78;;;43.44;20.38
19590;BME280;12231;42.782;23.388;2022-07-21T07:50:36;95711.53;;;41.09;23.30
19590;BME280;12231;42.782;23.388;2022-07-21T07:53:02;95712.66;;;43.55;21.04
19590;BME280;12231;42.782;23.388;2022-07-21T07:55:27;95710.34;;;43.99;20.75
19590;BME280;12231;42.782;23.388;2022-07-21T07:57:53;95708.28;;;42.23;21.98
19590;BME280;12231;42.782;23.388;2022-07-21T08:00:20;95709.44;;;44.04;20.83
19590;BME280;12231;42.782;23.388;2022-07-21T08:02:46;95701.69;;;41.71;23.34
19590;BME280;12231;42.782;23.388;2022-07-21T08:05:12;95701.19;;;43.21;21.87
19590;BME280;12231;42.782;23.388;2022-07-21T08:07:38;95697.44;;;44.05;21.17
19590;BME280;12231;42.782;23.388;2022-07-21T08:10:06;95697.47;;;41.12;23.66
19590;BME280;12231;42.782;23.388;2022-07-21T08:12:32;95692.00;;;42.51;21.76
19590;BME280;12231;42.782;23.388;2022-07-21T08:14:58;95692.94;;;44.14;21.46
19590;BME280;12231;42.782;23.388;2022-07-21T08:17:23;95687.44;;;41.56;23.46
19590;BME280;12231;42.782;23.388;2022-07-21T08:19:48;95690.44;;;38.50;26.16
19590;BME280;12231;42.782;23.388;2022-07-21T08:22:14;95691.25;;;38.55;27.45
19590;BME280;12231;42.782;23.388;2022-07-21T08:24:39;95668.28;;;40.99;24.34
19590;BME280;12231;42.782;23.388;2022-07-21T08:27:05;95669.50;;;42.22;22.75
19590;BME280;12231;42.782;23.388;2022-07-21T08:29:30;95671.84;;;42.99;22.55
19590;BME280;12231;42.782;23.388;2022-07-21T08:31:56;95688.88;;;40.01;24.96
19590;BME280;12231;42.782;23.388;2022-07-21T08:34:21;95672.06;;;41.41;23.19
19590;BME280;12231;42.782;23.388;2022-07-21T08:36:47;95664.66;;;41.90;23.16
19590;BME280;12231;42.782;23.388;2022-07-21T08:39:12;95669.66;;;42.31;22.41
19590;BME280;12231;42.782;23.388;2022-07-21T08:41:39;95666.53;;;44.28;21.88
19590;BME280;12231;42.782;23.388;2022-07-21T08:44:05;95661.66;;;44.43;20.41
19590;BME280;12231;42.782;23.388;2022-07-21T08:46:33;95656.50;;;45.32;19.24
19590;BME280;12231;42.782;23.388;2022-07-21T08:49:02;95672.34;;;37.67;27.49
19590;BME280;12231;42.782;23.388;2022-07-21T08:51:32;95656.44;;;39.76;25.99
19590;BME280;12231;42.782;23.388;2022-07-21T08:53:58;95648.34;;;42.48;23.04
19590;BME280;12231;42.782;23.388;2022-07-21T08:56:23;95641.09;;;40.75;24.84
19590;BME280;12231;42.782;23.388;2022-07-21T08:58:49;95650.75;;;37.03;29.32
19590;BME280;12231;42.782;23.388;2022-07-21T09:01:14;95645.59;;;36.97;29.59
19590;BME280;12231;42.782;23.388;2022-07-21T09:03:42;95640.06;;;36.60;29.51
19590;BME280;12231;42.782;23.388;2022-07-21T09:06:12;95635.03;;;38.27;27.32
19590;BME280;12231;42.782;23.388;2022-07-21T09:08:43;95622.69;;;39.83;26.33
19590;BME280;12231;42.782;23.388;2022-07-21T09:13:36;95617.25;;;41.88;25.23
19590;BME280;12231;42.782;23.388;2022-07-21T09:16:05;95615.72;;;42.76;22.60
19590;BME280;12231;42.782;23.388;2022-07-21T09:18:30;95617.22;;;43.24;22.42
19590;BME280;12231;42.782;23.388;2022-07-21T09:20:56;95603.16;;;44.82;20.87
19590;BME280;12231;42.782;23.388;2022-07-21T09:23:24;95616.38;;;40.33;23.26
19590;BME280;12231;42.782;23.388;2022-07-21T09:25:52;95616.38;;;40.33;24.25
19590;BME280;12231;42.782;23.388;2022-07-21T09:28:23;95621.44;;;38.02;25.85
19590;BME280;12231;42.782;23.388;2022-07-21T09:31:00;95619.41;;;39.01;25.00
19590;BME280;12231;42.782;23.388;2022-07-21T09:33:36;95606.72;;;39.97;24.26
19590;BME280;12231;42.782;23.388;2022-07-21T09:36:06;95610.50;;;39.86;24.62
19590;BME280;12231;42.782;23.388;2022-07-21T09:38:36;95600.84;;;41.74;24.57
19590;BME280;12231;42.782;23.388;2022-07-21T09:41:19;95594.34;;;42.51;22.19
19590;BME280;12231;42.782;23.388;2022-07-21T09:43:47;95597.59;;;43.27;21.98
19590;BME280;12231;42.782;23.388;2022-07-21T09:46:24;95591.47;;;44.13;20.46
19590;BME280;12231;42.782;23.388;2022-07-21T09:48:52;95589.06;;;44.12;19.85
19590;BME280;12231;42.782;23.388;2022-07-21T09:54:13;95588.25;;;45.01;19.75
19590;BME280;12231;42.782;23.388;2022-07-21T09:56:40;95595.59;;;43.97;20.51
19590;BME280;12231;42.782;23.388;2022-07-21T09:59:08;95584.50;;;44.61;18.71
19590;BME280;12231;42.782;23.388;2022-07-21T10:01:34;95579.03;;;44.89;19.03
19590;BME280;12231;42.782;23.388;2022-07-21T10:04:04;95585.31;;;44.08;19.42
19590;BME280;12231;42.782;23.388;2022-07-21T10:06:36;95581.31;;;41.49;21.27
19590;BME280;12231;42.782;23.388;2022-07-21T10:09:05;95581.31;;;41.49;20.56
19590;BME280;12231;42.782;23.388;2022-07-21T10:11:31;95577.88;;;40.51;22.40
19590;BME280;12231;42.782;23.388;2022-07-21T10:13:56;95588.13;;;38.18;25.18
19590;BME280;12231;42.782;23.388;2022-07-21T10:16:23;95581.72;;;37.82;26.46
19590;BME280;12231;42.782;23.388;2022-07-21T10:21:29;95578.41;;;37.70;26.04
19590;BME280;12231;42.782;23.388;2022-07-21T10:23:55;95574.53;;;37.20;26.10
19590;BME280;12231;42.782;23.388;2022-07-21T10:26:21;95572.66;;;37.98;26.00
19590;BME280;12231;42.782;23.388;2022-07-21T10:28:47;95573.22;;;36.42;28.14
19590;BME280;12231;42.782;23.388;2022-07-21T10:31:18;95574.66;;;36.07;27.78
19590;BME280;12231;42.782;23.388;2022-07-21T10:36:55;95564.25;;;37.48;26.95
19590;BME280;12231;42.782;23.388;2022-07-21T10:41:42;95557.97;;;37.69;26.32
19590;BME280;12231;42.782;23.388;2022-07-21T10:47:00;95553.88;;;34.93;28.71
19590;BME280;12231;42.782;23.388;2022-07-21T10:57:38;95544.81;;;34.82;29.91
19590;BME280;12231;42.782;23.388;2022-07-21T11:00:27;95537.50;;;34.78;29.46
19590;BME280;12231;42.782;23.388;2022-07-21T11:02:54;95527.66;;;34.95;28.89
19590;BME280;12231;42.782;23.388;2022-07-21T11:05:20;95525.72;;;34.62;29.68
19590;BME280;12231;42.782;23.388;2022-07-21T11:10:35;95517.34;;;35.03;29.28
19590;BME280;12231;42.782;23.388;2022-07-21T11:13:01;95514.75;;;34.92;28.88
19590;BME280;12231;42.782;23.388;2022-07-21T11:18:09;95515.09;;;35.50;28.46
19590;BME280;12231;42.782;23.388;2022-07-21T11:20:34;95508.97;;;35.00;28.44
19590;BME280;12231;42.782;23.388;2022-07-21T11:22:59;95509.56;;;34.74;29.17
19590;BME280;12231;42.782;23.388;2022-07-21T11:25:29;95514.34;;;34.55;28.92
19590;BME280;12231;42.782;23.388;2022-07-21T11:27:54;95518.09;;;34.54;29.05
19590;BME280;12231;42.782;23.388;2022-07-21T11:30:20;95511.03;;;34.81;28.57
19590;BME280;12231;42.782;23.388;2022-07-21T11:32:46;95510.50;;;34.96;29.73
19590;BME280;12231;42.782;23.388;2022-07-21T11:35:12;95510.94;;;34.31;29.58
19590;BME280;12231;42.782;23.388;2022-07-21T11:37:42;95505.75;;;34.70;29.24
19590;BME280;12231;42.782;23.388;2022-07-21T11:40:13;95517.69;;;34.34;30.81
19590;BME280;12231;42.782;23.388;2022-07-21T11:42:41;95498.44;;;34.37;30.38
19590;BME280;12231;42.782;23.388;2022-07-21T11:45:07;95503.06;;;34.70;29.97
19590;BME280;12231;42.782;23.388;2022-07-21T11:47:34;95494.63;;;34.78;29.56
19590;BME280;12231;42.782;23.388;2022-07-21T11:50:02;95484.44;;;34.91;29.13
19590;BME280;12231;42.782;23.388;2022-07-21T11:52:33;95485.00;;;35.10;29.03
19590;BME280;12231;42.782;23.388;2022-07-21T11:55:01;95476.44;;;34.63;30.53
19590;BME280;12231;42.782;23.388;2022-07-21T11:57:28;95475.53;;;35.62;28.76
19590;BME280;12231;42.782;23.388;2022-07-21T11:59:55;95480.44;;;34.94;29.83
19590;BME280;12231;42.782;23.388;2022-07-21T12:02:26;95476.28;;;35.03;29.23
19590;BME280;12231;42.782;23.388;2022-07-21T12:07:29;95476.47;;;35.34;29.08
19590;BME280;12231;42.782;23.388;2022-07-21T12:09:57;95482.25;;;35.43;29.65
19590;BME280;12231;42.782;23.388;2022-07-21T12:14:55;95476.97;;;35.31;29.46
19590;BME280;12231;42.782;23.388;2022-07-21T12:17:39;95469.38;;;35.61;28.99
19590;BME280;12231;42.782;23.388;2022-07-21T12:20:06;95475.28;;;36.07;28.10
19590;BME280;12231;42.782;23.388;2022-07-21T12:22:40;95465.59;;;35.41;29.81
19590;BME280;12231;42.782;23.388;2022-07-21T12:25:08;95470.97;;;35.62;28.89
19590;BME280;12231;42.782;23.388;2022-07-21T12:27:36;95462.72;;;35.47;30.19
19590;BME280;12231;42.782;23.388;2022-07-21T12:30:03;95464.78;;;35.83;28.99
19590;BME280;12231;42.782;23.388;2022-07-21T12:32:44;95458.44;;;34.92;30.13
19590;BME280;12231;42.782;23.388;2022-07-21T12:35:19;95453.03;;;34.42;30.51
19590;BME280;12231;42.782;23.388;2022-07-21T12:40:27;95451.09;;;34.09;32.00
19590;BME280;12231;42.782;23.388;2022-07-21T12:43:05;95448.00;;;35.12;31.39
19590;BME280;12231;42.782;23.388;2022-07-21T12:45:31;95445.09;;;34.63;32.73
19590;BME280;12231;42.782;23.388;2022-07-21T12:48:10;95438.19;;;35.01;30.93
19590;BME280;12231;42.782;23.388;2022-07-21T12:50:36;95441.16;;;35.37;29.76
19590;BME280;12231;42.782;23.388;2022-07-21T12:53:04;95443.28;;;35.19;29.82
19590;BME280;12231;42.782;23.388;2022-07-21T12:55:30;95436.16;;;35.67;29.06
19590;BME280;12231;42.782;23.388;2022-07-21T12:57:56;95432.09;;;35.65;29.63
19590;BME280;12231;42.782;23.388;2022-07-21T13:00:21;95425.59;;;34.85;30.42
19590;BME280;12231;42.782;23.388;2022-07-21T13:02:53;95424.72;;;34.46;31.40
19590;BME280;12231;42.782;23.388;2022-07-21T13:05:20;95427.56;;;34.11;31.24
19590;BME280;12231;42.782;23.388;2022-07-21T13:07:45;95423.72;;;33.91;32.26
19590;BME280;12231;42.782;23.388;2022-07-21T13:10:11;95422.16;;;34.23;30.95
19590;BME280;12231;42.782;23.388;2022-07-21T13:12:37;95408.47;;;34.36;32.19
19590;BME280;12231;42.782;23.388;2022-07-21T13:15:03;95411.59;;;34.44;31.72
19590;BME280;12231;42.782;23.388;2022-07-21T13:17:30;95422.59;;;34.31;32.85
19590;BME280;12231;42.782;23.388;2022-07-21T13:19:55;95409.44;;;34.80;31.17
19590;BME280;12231;42.782;23.388;2022-07-21T13:43:05;95403.63;;;37.12;25.34
19590;BME280;12231;42.782;23.388;2022-07-21T13:45:30;95410.19;;;36.84;27.26